This is the latest recevied weather packets stored in our database for station/object VE7THZ. If no packets are shown the sender has not sent any weather packets the latest 10 day(s).
| Time | Temp. | Humidity | Pressure | Rain* | Wind** | Luminosity | Snow |
|---|---|---|---|---|---|---|---|
| 1777576482 | 17.78° C | 40% | 1020.1 hPa | 0 mm | - | - | - |
| 1777575868 | 16.67° C | 44% | 1020.4 hPa | 0 mm | - | - | - |
| 1777575267 | 16.67° C | 41% | 1020.6 hPa | 0 mm | - | - | - |
| 1777574666 | 16.11° C | 41% | 1020.7 hPa | 0 mm | - | - | - |
| 1777574045 | 16.11° C | 43% | 1020.9 hPa | 0 mm | - | - | - |
| 1777573448 | 15.56° C | 43% | 1021.1 hPa | 0 mm | - | - | - |
| 1777572846 | 15° C | 45% | 1021.2 hPa | 0 mm | - | - | - |
| 1777572227 | 17.22° C | 38% | 1021.4 hPa | 0 mm | - | - | - |
| 1777571642 | 17.78° C | 39% | 1021.5 hPa | 0 mm | - | - | - |
| 1777571041 | 17.22° C | 37% | 1021.6 hPa | 0 mm | - | - | - |
| 1777570464 | 17.22° C | 39% | 1021.8 hPa | 0 mm | - | - | - |
| 1777569873 | 17.22° C | 41% | 1022 hPa | 0 mm | - | - | - |
| 1777569258 | 16.67° C | 46% | 1022.2 hPa | 0 mm | - | - | - |
| 1777568637 | 16.11° C | 45% | 1022.3 hPa | 0 mm | - | - | - |
| 1777568041 | 15.56° C | 44% | 1022.4 hPa | 0 mm | - | - | - |
| 1777567451 | 15° C | 45% | 1022.4 hPa | 0 mm | - | - | - |
| 1777566848 | 14.44° C | 48% | 1022.6 hPa | 0 mm | - | - | - |
| 1777566233 | 13.89° C | 45% | 1022.7 hPa | 0 mm | - | - | - |
| 1777565622 | 13.89° C | 45% | 1022.9 hPa | 0 mm | - | - | - |
| 1777565015 | 13.89° C | 48% | 1022.9 hPa | 0 mm | - | - | - |
| 1777564407 | 13.33° C | 49% | 1022.9 hPa | 0 mm | - | - | - |
| 1777563799 | 12.22° C | 51% | 1023 hPa | 0 mm | - | - | - |
| 1777563173 | 11.11° C | 53% | 1023.2 hPa | 0 mm | - | - | - |
| 1777562541 | 9.44° C | 59% | 1023.3 hPa | 0 mm | - | - | - |
| 1777561907 | 8.33° C | 58% | 1023.3 hPa | 0 mm | - | - | - |
* Rain latest hour (hover to see other rain measurements)
** Current wind speed in m/s (hover to see current wind gust speed)